WEATHER DATA

YESTERDAY
Time Temp. Dewp. Hum. Wind dir Wind speed Wind gust Bar. 1h Prec. 24h Prec.
00:04 8.7 3.3 69 164 0.3 1.1 1011.2 0.0000 0.0000
00:25 8.4 2.8 68 180 0.3 1.4 1011.7 0.0000 0.0000
00:34 8.5 3.3 70 180 0.3 1.9 1011.9 0.0000 0.0000
00:45 8.4 3.1 69 185 0.3 1.7 1012 0.0000 0.0000
01:05 8.5 3.1 69 215 0.3 0.8 1012.1 0.0000 0.0000
01:15 8.5 3.1 69 212 0.3 0.8 1012.2 0.0000 0.0000
01:26 8.4 2.8 68 185 0.3 1.1 1012.3 0.0000 0.0000
01:35 8.3 3 69 205 0.3 1.1 1012.3 0.0000 0.0000
01:45 8.3 3 69 212 0.3 0.8 1012.4 0.0000 0.0000
01:56 8.3 2.7 68 204 0.3 0.8 1012.6 0.0000 0.0000
02:06 8.4 2.8 68 212 0.3 1.7 1012.7 0.0000 0.0000
02:16 8.3 2.7 68 210 0.3 1.4 1012.8 0.0000 0.0000
02:26 8.2 2.7 68 205 0.3 1.7 1013.2 0.0000 0.0000
02:36 8.2 2.7 68 185 0.3 0.8 1013.3 0.0000 0.0000
02:46 8.2 2.7 68 206 0.3 1.7 1013.5 0.0000 0.0000
02:56 8.1 2.6 68 216 0.6 1.4 1013.5 0.0000 0.0000
03:06 7.9 2.4 68 225 0.3 1.7 1013.6 0.0000 0.0000
03:17 7.7 2.2 68 219 0.6 1.7 1013.7 0.0000 0.0000
03:27 7.4 2.1 69 219 0.3 1.4 1013.8 0.0000 0.0000
03:37 7.3 2 69 220 0.3 1.4 1013.8 0.0000 0.0000
03:47 7.2 1.9 69 202 0.6 2.2 1014 0.0000 0.0000
03:57 7.3 2 69 214 0.3 1.7 1014.2 0.0000 0.0000
04:07 7.4 2.1 69 205 0.3 1.4 1014.3 0.0000 0.0000
04:17 7.4 1.9 68 219 0.3 1.1 1014.4 0.0000 0.0000
04:28 7.4 1.9 68 213 0.3 1.1 1014.5 0.0000 0.0000
04:38 7.2 1.7 68 209 0.6 2.5 1014.4 0.0000 0.0000
04:47 7.1 1.8 69 219 0.3 0.8 1014.6 0.0000 0.0000
04:58 7.1 1.8 69 220 0.3 1.4 1014.7 0.0000 0.0000
05:08 7.2 1.7 68 210 0.3 1.4 1014.7 0.0000 0.0000
05:18 7.3 2 69 206 0.3 0.8 1014.9 0.0000 0.0000
05:28 7.4 2.1 69 214 0.3 1.7 1014.7 0.0000 0.0000
05:33 7.4 2.1 69 215 0.3 1.7 1015.1 0.0000 0.0000
05:48 8.5 2.5 66 225 0.6 2.2 1015.1 0.0000 0.0000
05:58 8.3 3.2 70 270 0.6 1.4 1015.3 0.0000 0.0000
06:08 9.7 3 63 225 0.3 0.8 1015.3 0.0000 0.0000
06:19 10.4 4.1 65 215 0.3 0.8 1015.4 0.0000 0.0000
06:29 9.8 2.6 61 253 0.6 1.4 1015.6 0.0000 0.0000
06:34 9.5 3 64 206 0.3 1.7 1015.8 0.0000 0.0000
06:49 9.1 2.4 63 198 0.3 1.1 1016 0.0000 0.0000
06:59 8.5 2.1 64 219 0.3 1.1 1016 0.1010 0.1000
07:09 7.9 1.9 66 218 0.3 0.8 1016.1 0.1010 0.1000
07:19 7.5 1.8 67 225 0.3 1.1 1016.1 0.1010 0.1000
07:30 7.2 1.7 68 209 0.3 0.6 1016.2 0.1010 0.1000
07:40 7.2 1.7 68 206 0.3 0.8 1016.2 0.1010 0.1000
07:45 7.2 1.7 68 225 0.3 0.8 1016.4 0.0000 0.1000
08:00 7.1 1.8 69 192 0.3 0.8 1016.5 0.0000 0.1000
08:10 7 1.7 69 189 0.3 0.8 1016.6 0.0000 0.1000
08:20 7 1.9 70 184 0.3 0.6 1016.9 0.0000 0.1000
08:30 6.7 1.6 70 206 0.3 1.1 1016.9 0.0000 0.1000
08:41 6.8 1.9 71 176 0.3 1.1 1017.1 0.0000 0.1000
08:51 6.9 1.8 70 158 0.3 0.8 1017.1 0.0000 0.1000
09:00 6.9 1.8 70 135 0.3 1.7 1017.2 0.0000 0.1000
09:10 6.9 1.8 70 180 0.3 0.8 1017.4 0.0000 0.1000
09:21 7.1 2 70 153 0.3 0.8 1017.4 0.0000 0.1000
09:31 7.3 2 69 225 0.3 0.8 1017.5 0.0000 0.1000
09:41 7.5 2 68 225 0.3 1.4 1017.6 0.0000 0.1000
09:51 7.5 1.8 67 135 0.3 0.8 1017.8 0.0000 0.1000
10:01 7.7 2 67 270 0.3 0.8 1017.9 0.0000 0.1000
10:11 7.7 2 67 270 0.3 1.1 1018 0.0000 0.1000
10:21 7.7 2 67 253 0.6 1.1 1018.1 0.0000 0.1000
10:32 7.8 2.1 67 270 0.6 1.1 1018.1 0.0000 0.1000
10:42 7.9 1.9 66 255 0.6 1.1 1018.1 0.0000 0.1000
10:52 7.9 1.9 66 270 0.6 1.7 1018.3 0.0000 0.1000
11:02 7.9 1.9 66 270 0.3 0.8 1018.3 0.0000 0.1000
11:12 8.2 2.2 66 0 0.6 1018.3 0.0000 0.1000
11:22 8.3 1.9 64 219 0.3 1.7 1018.2 0.0000 0.1000
11:32 8.2 1.8 64 270 0.3 1.1 1018.2 0.0000 0.1000
11:43 8 1.6 64 225 0.3 1.4 1018.3 0.0000 0.1000
11:53 7.9 1.3 63 155 0.3 0.8 1018.3 0.0000 0.1000
12:03 7.8 1.4 64 200 0.3 1.1 1018.3 0.0000 0.1000
12:12 7.7 1.3 64 144 0.3 1.7 1018.2 0.0000 0.1000
12:23 7.8 1.4 64 183 0.3 0.8 1018.2 0.0000 0.1000
12:33 7.7 1.3 64 150 0.6 1.7 1018.1 0.0000 0.1000
12:53 7.8 1.6 65 184 0.3 1.4 1018 0.0000 0.1000
13:04 7.9 1.5 64 176 0.3 1.4 1017.9 0.0000 0.1000
13:13 8 1.4 63 270 0.3 0.8 1017.8 0.0000 0.1000
13:23 8.1 1.5 63 270 0.3 1.1 1017.7 0.0000 0.1000
13:34 8.2 1.6 63 309 0.3 0.6 1017.7 0.0000 0.1000
13:44 8.3 1.5 62 270 0.3 0.8 1017.7 0.0000 0.1000
13:54 8.4 1.3 61 203 0.3 0.8 1017.6 0.0000 0.1000
14:04 8.7 1.6 61 210 0.3 1.1 1017.5 0.0000 0.1000
14:14 9.6 2 59 236 0.3 0.6 1017.4 0.0000 0.1000
14:24 10.1 2 57 270 0.3 0.8 1017.4 0.0000 0.1000
14:34 10.5 2.1 56 168 0.3 0.8 1017.5 0.0000 0.1000
14:45 10.3 1.7 55 225 0.3 1.1 1017.3 0.0000 0.1000
14:55 9.8 1.2 55 164 0.3 1.1 1017.3 0.0000 0.1000
15:05 9.5 1.4 57 191 0.3 1.1 1017.5 0.0000 0.1000
15:15 9.3 1.5 58 201 0.3 0.8 1017.4 0.0000 0.1000
15:25 9.2 1.6 59 206 0.3 0.6 1017.5 0.0000 0.1000
15:35 9.1 1.8 60 219 0.3 0.8 1017.4 0.0000 0.1000
15:45 8.6 1.3 60 206 0.3 0.8 1017.4 0.0000 0.1000
15:55 8.4 1.3 61 206 0.3 1.1 1017.4 0.0000 0.1000
16:06 8.3 1.5 62 217 0.3 0.6 1017.4 0.0000 0.1000
16:16 8.2 1.1 61 201 0.3 0.8 1017.5 0.1000
20:04 9.1 1.5 59 225 0.3 0.8 1017.2 0.0000 0.1000
20:14 8.8 1.9 62 239 0.6 1.1 1017.7 0.0000 0.1000
20:24 9.5 2.4 61 201 0.3 1.1 1017.8 0.0000 0.1000
20:35 8.6 2 63 220 0.3 1.1 1017.7 0.1010 0.2000
20:45 8.2 1.8 64 219 0.3 0.8 1017.8 0.2020 0.3000
20:55 7.8 1.4 64 210 0.3 0.8 1018 0.2020 0.3000
21:04 7.5 1.4 65 212 0.3 0.8 1017.8 0.3030 0.4000
21:14 7.3 1.4 66 198 0.3 0.8 1017.9 0.3030 0.4000
21:24 7.1 1.2 66 208 0.3 0.6 1018 0.3030 0.4000
21:35 7 1.7 69 208 0.3 0.8 1018.1 0.2020 0.4000
21:45 8 1.6 64 228 0.3 0.8 1018.1 0.1010 0.4000
21:55 7.7 1.5 65 210 0.3 0.6 1018.1 0.0000 0.4000
22:15 7.1 1.4 67 216 0.3 1.1 1018 0.1010 0.5000
22:25 6.9 1.4 68 209 0.3 0.8 1018.2 0.1010 0.5000
22:35 6.8 1.3 68 213 0.3 0.8 1018.4 0.1010 0.5000
22:45 6.7 1.2 68 0 0.8 1018.4 0.1010 0.5000
22:56 8 2 66 270 0.3 0.8 1018.7 0.1010 0.5000
23:06 7.6 1.4 65 270 0.6 0.8 1018.8 0.1010 0.5000
23:15 7.4 1 64 270 0.6 0.8 1018.8 0.0000 0.5000
23:26 7.2 0.9 64 225 0.3 0.6 1018.8 0.0000 0.5000
23:36 7.1 1 65 225 0.3 0.6 1018.9 0.0000 0.5000
23:56 6.9 0.8 65 225 0.3 0.6 1018.8 0.0000 0.5000

DAY STATISTIC

2018-12-10
TEMPERATURE
AVERAGE
8.0
HIGH
10.5
14:34
LOW
6.7
08:30
PRESSURE
AVERAGE
1016.4
HIGH
1018.9
23:36
LOW
1011.2
00:04
DEWPOINT
AVERAGE
1.9
HIGH
4.1
06:19
LOW
0.8
23:56
HUMIDITY
AVERAGE
66
HIGH
71
08:41
LOW
55
14:45
WIND SPEED
AVERAGE
0.3
HIGH
0.6
02:56
WIND GUST
AVERAGE
1.1
HIGH
2.5
04:38
WIND DIRECTION
PREVAILING
SW
54.3%
N
0.0
NE
0.0
E
0.0
SE
5.2
S
23.3
SW
54.3
W
14.7
NW
0.9
PRECIPITATION
RAIN HOUR
0.3
RAIN DAY
0.5
TEMPERATURE (°C)
LOW
6.7
HIGH
10.5
AVERAGE
8.0
PRESSURE (hpa)
LOW
1011.2
HIGH
1018.9
AVERAGE
1016.4
DEVICE